Time;durP1;ratioP1;P1;durP2;ratioP2;P2;SDS_P1;SDS_P2;PMS_P1;PMS_P2;Temp;Humidity;BMP_temperature;BMP_pressure;BME280_temperature;BME280_humidity;BME280_pressure;Samples;Min_cycle;Max_cycle;Signal;HPM_P1;HPM_P2
2023/10/25 00:02:12;;;;;;;2.30;1.20;;;;;;;;;;5093353;28;20432;-77
2023/10/25 00:04:40;;;;;;;2.73;0.90;;;;;;;;;;5093179;28;20432;-77
2023/10/25 00:07:08;;;;;;;4.00;1.43;;;;;;;;;;5093306;28;20459;-76
2023/10/25 00:09:35;;;;;;;2.60;1.03;;;;;;;;;;5093285;28;20505;-76
2023/10/25 00:12:03;;;;;;;3.40;1.00;;;;;;;;;;5096862;28;20432;-76
2023/10/25 00:14:32;;;;;;;2.30;1.50;;;;;;;;;;5096618;28;20999;-76
2023/10/25 00:16:59;;;;;;;2.87;1.03;;;;;;;;;;5097307;28;20441;-76
2023/10/25 00:19:27;;;;;;;2.20;1.00;;;;;;;;;;5096497;28;20953;-77
2023/10/25 00:21:54;;;;;;;1.90;0.90;;;;;;;;;;5097107;28;20430;-77
2023/10/25 00:24:22;;;;;;;2.03;0.93;;;;;;;;;;5096585;28;20439;-76
2023/10/25 00:26:49;;;;;;;2.00;1.00;;;;;;;;;;5096774;28;20443;-76
2023/10/25 00:29:17;;;;;;;4.57;1.00;;;;;;;;;;5096849;28;20467;-76
2023/10/25 00:31:46;;;;;;;1.77;0.70;;;;;;;;;;5096721;28;20436;-76
2023/10/25 00:34:14;;;;;;;2.80;1.13;;;;;;;;;;5096880;28;20447;-76
2023/10/25 00:36:41;;;;;;;1.90;0.80;;;;;;;;;;5096545;28;20428;-76
2023/10/25 00:39:09;;;;;;;2.00;0.90;;;;;;;;;;5096852;28;20547;-76
2023/10/25 00:41:36;;;;;;;2.27;1.03;;;;;;;;;;5096929;28;20435;-76
2023/10/25 00:44:04;;;;;;;2.03;0.83;;;;;;;;;;5096040;28;20419;-76
2023/10/25 00:46:31;;;;;;;2.00;1.00;;;;;;;;;;5096333;28;20440;-76
2023/10/25 00:49:01;;;;;;;1.90;0.80;;;;;;;;;;5096615;28;20976;-77
2023/10/25 00:51:30;;;;;;;1.70;0.80;;;;;;;;;;5096816;28;20801;-76
2023/10/25 00:53:59;;;;;;;1.93;0.80;;;;;;;;;;5095858;28;20432;-76
2023/10/25 00:56:27;;;;;;;2.03;1.00;;;;;;;;;;5096425;28;20949;-76
2023/10/25 00:58:56;;;;;;;1.97;0.90;;;;;;;;;;5096572;28;20528;-76
2023/10/25 01:01:24;;;;;;;1.70;0.60;;;;;;;;;;5096133;28;20832;-76
2023/10/25 01:03:52;;;;;;;5.40;1.00;;;;;;;;;;5096095;28;20431;-76
2023/10/25 01:06:20;;;;;;;1.83;0.70;;;;;;;;;;5096356;28;20439;-76
2023/10/25 01:08:48;;;;;;;1.90;0.70;;;;;;;;;;5095878;28;20428;-76
2023/10/25 01:11:16;;;;;;;2.10;0.80;;;;;;;;;;5096109;28;20470;-76
2023/10/25 01:13:44;;;;;;;2.00;0.93;;;;;;;;;;5095865;28;20431;-76
2023/10/25 01:16:11;;;;;;;1.80;0.70;;;;;;;;;;5095881;28;20439;-76
2023/10/25 01:18:39;;;;;;;1.97;0.87;;;;;;;;;;5095835;28;20470;-76
2023/10/25 01:21:06;;;;;;;1.87;0.80;;;;;;;;;;5095539;28;20482;-77
2023/10/25 01:23:35;;;;;;;3.70;0.90;;;;;;;;;;5094948;28;20428;-76
2023/10/25 01:26:02;;;;;;;4.40;0.93;;;;;;;;;;5095467;28;20934;-76
2023/10/25 01:28:30;;;;;;;2.57;0.97;;;;;;;;;;5095905;28;20794;-76
2023/10/25 01:30:58;;;;;;;2.10;0.87;;;;;;;;;;5095273;28;20553;-76
2023/10/25 01:33:25;;;;;;;2.20;0.80;;;;;;;;;;5095494;28;20522;-76
2023/10/25 01:35:54;;;;;;;2.53;1.00;;;;;;;;;;5095195;28;20443;-76
2023/10/25 01:38:22;;;;;;;1.90;0.90;;;;;;;;;;5095270;28;20519;-77
2023/10/25 01:40:51;;;;;;;3.20;1.17;;;;;;;;;;5095798;28;20447;-76
2023/10/25 01:43:18;;;;;;;3.00;1.60;;;;;;;;;;5095883;28;20443;-76
2023/10/25 01:45:46;;;;;;;3.93;1.10;;;;;;;;;;5095131;28;20438;-76
2023/10/25 01:48:13;;;;;;;2.10;0.83;;;;;;;;;;5095524;28;20431;-76
2023/10/25 01:50:41;;;;;;;2.13;1.00;;;;;;;;;;5095247;28;20467;-76
2023/10/25 01:53:08;;;;;;;3.27;0.93;;;;;;;;;;5094309;28;20437;-76
2023/10/25 01:55:41;;;;;;;1.93;0.90;;;;;;;;;;5094769;28;20443;-76
2023/10/25 01:58:10;;;;;;;2.73;1.20;;;;;;;;;;5095344;28;20419;-76
2023/10/25 02:00:39;;;;;;;2.23;1.10;;;;;;;;;;5095322;28;20431;-76
2023/10/25 02:03:07;;;;;;;3.90;1.10;;;;;;;;;;5093646;28;20439;-76
2023/10/25 02:05:34;;;;;;;1.90;0.93;;;;;;;;;;5095048;28;20930;-77
2023/10/25 02:08:02;;;;;;;3.50;1.00;;;;;;;;;;5094699;28;20496;-76
2023/10/25 02:10:29;;;;;;;2.23;1.00;;;;;;;;;;5094666;28;20988;-76
2023/10/25 02:12:57;;;;;;;2.27;1.17;;;;;;;;;;5094449;28;20439;-76
2023/10/25 02:15:27;;;;;;;2.83;1.40;;;;;;;;;;5094715;28;20427;-76
2023/10/25 02:17:54;;;;;;;2.50;1.63;;;;;;;;;;5094554;28;20427;-76
2023/10/25 02:20:23;;;;;;;3.03;0.90;;;;;;;;;;5094824;28;20525;-76
2023/10/25 02:22:50;;;;;;;2.40;1.30;;;;;;;;;;5094633;28;20583;-76
2023/10/25 02:25:18;;;;;;;2.70;1.53;;;;;;;;;;5095005;28;20435;-76
2023/10/25 02:27:45;;;;;;;1.90;0.90;;;;;;;;;;5094825;28;20432;-76
2023/10/25 02:30:13;;;;;;;3.13;1.33;;;;;;;;;;5093889;28;20554;-76
2023/10/25 02:32:42;;;;;;;2.60;1.30;;;;;;;;;;5093029;28;20432;-76
2023/10/25 02:35:10;;;;;;;2.57;1.20;;;;;;;;;;5094449;28;20451;-76
2023/10/25 02:37:37;;;;;;;3.40;1.73;;;;;;;;;;5094497;28;20932;-76
2023/10/25 02:40:05;;;;;;;2.97;1.60;;;;;;;;;;5094945;28;20443;-76
2023/10/25 02:42:33;;;;;;;2.20;1.10;;;;;;;;;;5093817;28;20926;-76
2023/10/25 02:45:01;;;;;;;2.90;1.43;;;;;;;;;;5094594;28;20523;-76
2023/10/25 02:47:28;;;;;;;2.07;1.10;;;;;;;;;;5094613;28;20431;-76
2023/10/25 02:49:57;;;;;;;2.50;1.30;;;;;;;;;;5094466;28;20817;-76
2023/10/25 02:52:25;;;;;;;2.00;1.03;;;;;;;;;;5093937;28;20512;-76
2023/10/25 02:54:55;;;;;;;2.37;1.07;;;;;;;;;;5094285;28;20800;-76
2023/10/25 02:57:22;;;;;;;2.10;1.00;;;;;;;;;;5094412;28;20831;-77
2023/10/25 02:59:51;;;;;;;2.50;1.00;;;;;;;;;;5094120;28;20848;-76
2023/10/25 03:02:19;;;;;;;2.17;1.00;;;;;;;;;;5093519;28;20523;-76
2023/10/25 03:04:46;;;;;;;1.80;0.83;;;;;;;;;;5093778;28;20432;-76
2023/10/25 03:07:15;;;;;;;2.97;1.20;;;;;;;;;;5094052;28;20423;-77
2023/10/25 03:09:43;;;;;;;2.00;1.00;;;;;;;;;;5093571;28;20505;-76
2023/10/25 03:12:11;;;;;;;1.80;0.83;;;;;;;;;;5093723;28;20474;-76
2023/10/25 03:14:38;;;;;;;2.30;1.20;;;;;;;;;;5093908;28;20930;-77
2023/10/25 03:17:05;;;;;;;2.10;0.90;;;;;;;;;;5093593;28;20439;-76
2023/10/25 03:19:33;;;;;;;2.73;1.10;;;;;;;;;;5093546;28;20521;-76
2023/10/25 03:22:01;;;;;;;3.10;1.17;;;;;;;;;;5093231;28;20456;-76
2023/10/25 03:24:31;;;;;;;6.53;1.00;;;;;;;;;;5093489;28;20478;-76
2023/10/25 03:26:58;;;;;;;2.07;1.10;;;;;;;;;;5093408;28;20514;-76
2023/10/25 03:29:25;;;;;;;2.10;1.10;;;;;;;;;;5093368;28;20832;-76
2023/10/25 03:31:57;;;;;;;2.20;1.23;;;;;;;;;;5092943;28;20435;-76
2023/10/25 03:34:25;;;;;;;2.13;1.50;;;;;;;;;;5093489;28;20771;-76
2023/10/25 03:36:52;;;;;;;2.67;1.67;;;;;;;;;;5093291;28;20906;-76
2023/10/25 03:39:20;;;;;;;3.50;1.80;;;;;;;;;;5092918;28;20447;-76
2023/10/25 03:41:49;;;;;;;2.60;1.77;;;;;;;;;;5093356;28;20488;-76
2023/10/25 03:44:17;;;;;;;3.00;1.60;;;;;;;;;;5093540;28;20432;-76
2023/10/25 03:46:44;;;;;;;2.53;1.40;;;;;;;;;;5092978;28;20185;-76
2023/10/25 03:49:11;;;;;;;2.33;1.13;;;;;;;;;;5093554;28;20516;-76
2023/10/25 03:51:39;;;;;;;3.03;1.53;;;;;;;;;;5093014;28;20985;-76
2023/10/25 03:54:06;;;;;;;4.15;1.40;;;;;;;;;;5093571;28;20420;-76
2023/10/25 03:56:34;;;;;;;3.50;2.30;;;;;;;;;;5092706;28;20193;-76
2023/10/25 03:59:03;;;;;;;3.53;2.05;;;;;;;;;;5093232;28;20679;-76
2023/10/25 04:01:30;;;;;;;2.88;1.10;;;;;;;;;;5092860;28;20181;-76
2023/10/25 04:03:58;;;;;;;2.80;1.75;;;;;;;;;;5092974;28;20238;-76
2023/10/25 04:06:25;;;;;;;3.63;1.40;;;;;;;;;;5093319;28;20203;-76
2023/10/25 04:08:53;;;;;;;2.53;1.73;;;;;;;;;;5093691;28;20526;-76
2023/10/25 04:11:20;;;;;;;3.15;1.50;;;;;;;;;;5093363;28;20253;-76
2023/10/25 04:13:47;;;;;;;5.00;1.90;;;;;;;;;;5093342;28;20226;-76
2023/10/25 04:16:16;;;;;;;3.05;1.58;;;;;;;;;;5093585;28;20616;-76
2023/10/25 04:18:44;;;;;;;2.22;1.35;;;;;;;;;;5093501;28;20186;-76
2023/10/25 04:21:12;;;;;;;2.45;1.40;;;;;;;;;;5093288;28;20228;-76
2023/10/25 04:23:40;;;;;;;3.10;1.70;;;;;;;;;;5093432;28;20205;-77
2023/10/25 04:26:07;;;;;;;3.40;1.95;;;;;;;;;;5093425;28;20193;-76
2023/10/25 04:28:35;;;;;;;4.20;1.50;;;;;;;;;;5093435;28;20250;-76
2023/10/25 04:31:02;;;;;;;3.60;1.25;;;;;;;;;;5092165;28;20558;-76
2023/10/25 04:33:31;;;;;;;2.63;1.55;;;;;;;;;;5093068;28;20735;-76
2023/10/25 04:35:59;;;;;;;2.60;1.73;;;;;;;;;;5092008;28;20209;-76
2023/10/25 04:38:26;;;;;;;2.50;1.73;;;;;;;;;;5092888;28;20189;-76
2023/10/25 04:40:54;;;;;;;3.13;2.73;;;;;;;;;;5090225;28;20190;-76
2023/10/25 04:43:21;;;;;;;6.85;2.33;;;;;;;;;;5093173;28;20438;-76
2023/10/25 04:45:51;;;;;;;3.72;1.58;;;;;;;;;;5093239;28;20247;-76
2023/10/25 04:48:18;;;;;;;3.47;1.77;;;;;;;;;;5092859;28;20198;-76
2023/10/25 04:50:47;;;;;;;5.07;1.70;;;;;;;;;;5093003;28;20209;-77
2023/10/25 04:53:15;;;;;;;3.67;2.25;;;;;;;;;;5092991;28;20711;-77
2023/10/25 04:55:45;;;;;;;3.80;1.80;;;;;;;;;;5092715;28;20605;-77
2023/10/25 04:58:13;;;;;;;2.80;1.95;;;;;;;;;;5095193;28;20188;-78
2023/10/25 05:00:40;;;;;;;3.72;2.75;;;;;;;;;;5096720;28;20532;-78
2023/10/25 05:03:11;;;;;;;3.95;2.33;;;;;;;;;;5096841;28;20588;-78
2023/10/25 05:05:38;;;;;;;3.55;2.08;;;;;;;;;;5096924;28;20510;-77
2023/10/25 05:08:08;;;;;;;5.00;3.13;;;;;;;;;;5093670;28;20521;-78
2023/10/25 05:10:36;;;;;;;4.78;2.88;;;;;;;;;;5094517;28;20599;-78
2023/10/25 05:13:04;;;;;;;5.72;2.85;;;;;;;;;;5094850;28;20189;-78
2023/10/25 05:15:35;;;;;;;3.95;2.55;;;;;;;;;;5094431;28;20281;-78
2023/10/25 05:18:02;;;;;;;3.03;2.45;;;;;;;;;;5093674;28;20689;-78
2023/10/25 05:20:30;;;;;;;3.38;2.10;;;;;;;;;;5094317;28;20225;-78
2023/10/25 05:22:59;;;;;;;2.95;1.80;;;;;;;;;;5094261;28;20193;-78
2023/10/25 05:25:29;;;;;;;4.40;3.17;;;;;;;;;;5094718;28;20632;-78
2023/10/25 05:27:59;;;;;;;8.18;6.43;;;;;;;;;;5093862;28;20185;-77
2023/10/25 05:30:27;;;;;;;22.60;14.70;;;;;;;;;;5094456;28;20381;-78
2023/10/25 05:33:00;;;;;;;32.70;21.02;;;;;;;;;;5094067;28;20728;-77
2023/10/25 05:35:28;;;;;;;28.55;19.08;;;;;;;;;;5090787;28;20205;-78
2023/10/25 05:37:56;;;;;;;24.50;15.25;;;;;;;;;;5093886;28;20243;-78
2023/10/25 05:40:24;;;;;;;14.65;10.40;;;;;;;;;;5094240;28;20531;-78
2023/10/25 05:42:56;;;;;;;12.18;8.00;;;;;;;;;;5094280;28;20318;-77
2023/10/25 05:45:26;;;;;;;8.43;6.95;;;;;;;;;;5094275;28;20198;-78
2023/10/25 05:47:54;;;;;;;7.43;6.20;;;;;;;;;;5093926;28;20182;-77
2023/10/25 05:50:22;;;;;;;14.57;10.50;;;;;;;;;;5089215;28;20205;-78
2023/10/25 05:52:50;;;;;;;18.90;11.50;;;;;;;;;;5093365;28;20191;-77
2023/10/25 05:55:18;;;;;;;13.05;10.02;;;;;;;;;;5093868;28;20181;-78
2023/10/25 05:57:46;;;;;;;13.25;8.80;;;;;;;;;;5093591;28;20716;-77
2023/10/25 06:00:16;;;;;;;12.73;5.05;;;;;;;;;;5093679;28;20225;-78
2023/10/25 06:02:44;;;;;;;6.03;4.10;;;;;;;;;;5092781;28;20330;-78
2023/10/25 06:05:13;;;;;;;6.40;4.63;;;;;;;;;;5092798;28;20252;-77
2023/10/25 06:07:40;;;;;;;5.15;3.63;;;;;;;;;;5089669;28;20247;-78
2023/10/25 06:10:08;;;;;;;9.55;4.30;;;;;;;;;;5092463;28;20224;-78
2023/10/25 06:12:36;;;;;;;31.67;5.03;;;;;;;;;;5093309;28;20194;-78
2023/10/25 06:15:04;;;;;;;27.38;4.30;;;;;;;;;;5092711;28;20270;-78
2023/10/25 06:17:33;;;;;;;24.48;4.22;;;;;;;;;;5092436;28;20731;-78
2023/10/25 06:20:00;;;;;;;10.27;3.03;;;;;;;;;;5092078;28;20231;-78
2023/10/25 06:22:28;;;;;;;18.80;3.63;;;;;;;;;;5092955;28;20189;-77
2023/10/25 06:24:55;;;;;;;18.73;5.10;;;;;;;;;;5091616;28;20185;-78
2023/10/25 06:27:22;;;;;;;12.10;4.07;;;;;;;;;;5093003;28;20205;-78
2023/10/25 06:29:50;;;;;;;10.77;3.40;;;;;;;;;;5092258;28;20694;-78
2023/10/25 06:32:17;;;;;;;6.82;2.85;;;;;;;;;;5090898;28;20225;-78
2023/10/25 06:34:46;;;;;;;17.35;2.53;;;;;;;;;;5090960;28;20599;-78
2023/10/25 06:37:13;;;;;;;8.38;1.95;;;;;;;;;;5093136;28;20188;-78
2023/10/25 06:39:41;;;;;;;4.45;2.17;;;;;;;;;;5094320;28;20201;-78
2023/10/25 06:42:10;;;;;;;6.72;2.25;;;;;;;;;;5094520;28;20243;-78
2023/10/25 06:44:37;;;;;;;8.63;2.90;;;;;;;;;;5094389;28;20559;-78
2023/10/25 06:47:06;;;;;;;21.37;3.00;;;;;;;;;;5094719;28;20197;-78
2023/10/25 06:49:33;;;;;;;4.65;2.58;;;;;;;;;;5094135;28;20436;-78
2023/10/25 06:52:02;;;;;;;6.28;2.97;;;;;;;;;;5094168;28;20213;-78
2023/10/25 06:54:30;;;;;;;8.60;2.43;;;;;;;;;;5094099;28;20543;-78
2023/10/25 06:56:57;;;;;;;3.40;2.20;;;;;;;;;;5094241;28;20844;-78
2023/10/25 06:59:25;;;;;;;3.33;1.90;;;;;;;;;;5094285;28;20189;-78
2023/10/25 07:01:55;;;;;;;3.60;2.00;;;;;;;;;;5094236;28;20443;-78
2023/10/25 07:04:22;;;;;;;4.13;2.30;;;;;;;;;;5093872;28;20953;-78
2023/10/25 07:06:50;;;;;;;8.00;3.83;;;;;;;;;;5094066;28;20463;-78
2023/10/25 07:09:19;;;;;;;4.35;2.30;;;;;;;;;;5094363;28;20446;-78
2023/10/25 07:11:47;;;;;;;7.57;3.30;;;;;;;;;;5093669;28;20213;-78
2023/10/25 07:14:17;;;;;;;7.03;2.97;;;;;;;;;;5093977;28;20435;-78
2023/10/25 07:16:44;;;;;;;9.47;3.30;;;;;;;;;;5093623;28;20514;-78
2023/10/25 07:19:11;;;;;;;10.63;4.00;;;;;;;;;;5093286;28;20434;-78
2023/10/25 07:21:38;;;;;;;9.73;2.90;;;;;;;;;;5093243;28;20827;-78
2023/10/25 07:24:06;;;;;;;15.53;4.07;;;;;;;;;;5093486;28;20443;-79
2023/10/25 07:26:35;;;;;;;4.10;2.97;;;;;;;;;;5093737;28;20518;-78
2023/10/25 07:29:02;;;;;;;5.80;3.17;;;;;;;;;;5093795;28;20518;-78
2023/10/25 07:31:30;;;;;;;6.27;4.10;;;;;;;;;;5093385;28;20463;-78
2023/10/25 07:33:57;;;;;;;4.83;3.17;;;;;;;;;;5093494;28;20941;-78
2023/10/25 07:36:25;;;;;;;12.67;3.30;;;;;;;;;;5094025;28;20439;-78
2023/10/25 07:38:53;;;;;;;20.50;3.63;;;;;;;;;;5093808;28;20467;-78
2023/10/25 07:41:20;;;;;;;13.20;3.23;;;;;;;;;;5093697;28;20793;-78
2023/10/25 07:43:49;;;;;;;3.80;2.40;;;;;;;;;;5093603;28;20462;-79
2023/10/25 07:46:16;;;;;;;4.53;2.23;;;;;;;;;;5093265;28;20431;-79
2023/10/25 07:48:44;;;;;;;3.77;1.90;;;;;;;;;;5093377;28;20839;-79
2023/10/25 07:51:11;;;;;;;3.70;2.10;;;;;;;;;;5093455;28;20467;-79
2023/10/25 07:53:39;;;;;;;3.80;2.20;;;;;;;;;;5093106;28;20921;-79
2023/10/25 07:56:06;;;;;;;5.20;2.10;;;;;;;;;;5093202;28;20975;-80
2023/10/25 07:58:34;;;;;;;3.63;2.20;;;;;;;;;;5093445;28;20436;-79
2023/10/25 08:01:02;;;;;;;4.87;3.27;;;;;;;;;;5093175;28;20534;-80
2023/10/25 08:03:29;;;;;;;4.07;3.03;;;;;;;;;;5093128;28;20476;-80
2023/10/25 08:05:57;;;;;;;4.43;2.53;;;;;;;;;;5093114;28;20480;-80
2023/10/25 08:08:24;;;;;;;4.70;3.13;;;;;;;;;;5093641;28;20565;-81
2023/10/25 08:11:00;;;;;;;5.83;3.40;;;;;;;;;;5093350;28;20416;-81
2023/10/25 08:13:27;;;;;;;5.13;4.07;;;;;;;;;;5093356;28;20783;-81
2023/10/25 08:15:57;;;;;;;4.53;2.73;;;;;;;;;;5093476;28;20440;-81
2023/10/25 08:18:27;;;;;;;3.87;2.60;;;;;;;;;;5093269;28;20424;-81
2023/10/25 08:20:54;;;;;;;4.20;2.33;;;;;;;;;;5093388;28;20463;-81
2023/10/25 08:23:22;;;;;;;3.90;1.83;;;;;;;;;;5093240;28;20459;-81
2023/10/25 08:25:50;;;;;;;4.90;1.77;;;;;;;;;;5093151;28;20443;-82
2023/10/25 08:28:17;;;;;;;2.40;1.30;;;;;;;;;;5093251;28;20435;-82
2023/10/25 08:30:45;;;;;;;2.93;1.70;;;;;;;;;;5092788;28;20454;-82
2023/10/25 08:33:12;;;;;;;3.67;1.73;;;;;;;;;;5096599;28;20485;-82
2023/10/25 08:35:40;;;;;;;2.67;1.53;;;;;;;;;;5097143;28;20760;-82
2023/10/25 08:38:08;;;;;;;2.40;1.23;;;;;;;;;;5096704;28;20424;-82
2023/10/25 08:40:39;;;;;;;2.73;1.33;;;;;;;;;;5096900;28;20836;-83
2023/10/25 08:43:07;;;;;;;2.57;1.37;;;;;;;;;;5096651;28;20977;-83
2023/10/25 08:45:35;;;;;;;2.20;1.10;;;;;;;;;;5096891;28;20431;-83
2023/10/25 08:48:03;;;;;;;2.20;1.20;;;;;;;;;;5096778;28;20570;-83
2023/10/25 08:50:31;;;;;;;2.00;0.93;;;;;;;;;;5096710;28;20454;-84
2023/10/25 08:53:01;;;;;;;2.83;1.10;;;;;;;;;;5096419;28;20467;-84
2023/10/25 08:55:28;;;;;;;2.80;1.30;;;;;;;;;;5096316;28;20480;-84
2023/10/25 08:57:56;;;;;;;3.47;1.17;;;;;;;;;;5096237;28;20439;-84
2023/10/25 09:00:24;;;;;;;1.97;0.83;;;;;;;;;;5096192;28;20466;-84
2023/10/25 09:02:52;;;;;;;2.20;1.00;;;;;;;;;;5096133;28;20445;-84
2023/10/25 09:05:19;;;;;;;3.10;0.93;;;;;;;;;;5095977;28;20471;-84
2023/10/25 09:07:46;;;;;;;2.00;0.90;;;;;;;;;;5096211;28;20431;-82
2023/10/25 09:10:17;;;;;;;2.63;0.93;;;;;;;;;;5096061;28;20439;-81
2023/10/25 09:12:45;;;;;;;5.70;0.80;;;;;;;;;;5096318;28;20519;-81
2023/10/25 09:15:12;;;;;;;2.00;0.70;;;;;;;;;;5095865;28;20439;-81
2023/10/25 09:17:39;;;;;;;4.13;0.70;;;;;;;;;;5096156;28;20423;-82
2023/10/25 09:20:09;;;;;;;3.23;0.70;;;;;;;;;;5095764;28;21034;-82
2023/10/25 09:22:36;;;;;;;2.00;0.70;;;;;;;;;;5096176;28;20475;-81
2023/10/25 09:25:05;;;;;;;4.47;0.70;;;;;;;;;;5096054;28;20435;-81
2023/10/25 09:27:42;;;;;;;2.60;0.60;;;;;;;;;;5095873;28;20477;-81
2023/10/25 09:30:14;;;;;;;1.90;0.60;;;;;;;;;;5095818;28;20443;-81
2023/10/25 09:32:41;;;;;;;1.93;0.50;;;;;;;;;;5095620;28;20427;-81
2023/10/25 09:35:09;;;;;;;2.50;0.60;;;;;;;;;;5095885;28;20435;-81
2023/10/25 09:37:36;;;;;;;2.00;0.73;;;;;;;;;;5096009;28;20427;-81
2023/10/25 09:40:04;;;;;;;1.73;0.50;;;;;;;;;;5095844;28;20439;-81
2023/10/25 09:42:33;;;;;;;2.33;0.50;;;;;;;;;;5095252;28;20496;-81
2023/10/25 09:45:04;;;;;;;2.43;0.60;;;;;;;;;;5095637;28;20458;-81
2023/10/25 09:47:35;;;;;;;2.03;0.67;;;;;;;;;;5095371;28;20933;-81
2023/10/25 09:50:08;;;;;;;1.70;0.60;;;;;;;;;;5095488;28;20446;-81
2023/10/25 09:52:37;;;;;;;1.80;0.50;;;;;;;;;;5095586;28;20472;-81
2023/10/25 09:55:05;;;;;;;1.70;0.50;;;;;;;;;;5095424;28;20794;-81
2023/10/25 09:57:33;;;;;;;2.47;0.60;;;;;;;;;;5095140;28;20423;-81
2023/10/25 10:00:02;;;;;;;2.00;0.80;;;;;;;;;;5095397;28;20435;-81
2023/10/25 10:02:34;;;;;;;1.90;0.70;;;;;;;;;;5095391;28;20543;-80
2023/10/25 10:05:03;;;;;;;2.10;0.70;;;;;;;;;;5095293;28;20431;-81
2023/10/25 10:07:33;;;;;;;2.10;0.70;;;;;;;;;;5095274;28;20431;-81
2023/10/25 10:10:05;;;;;;;2.03;0.60;;;;;;;;;;5095285;28;20769;-81
2023/10/25 10:12:33;;;;;;;2.00;0.67;;;;;;;;;;5094903;28;20439;-80
2023/10/25 10:15:02;;;;;;;1.90;0.50;;;;;;;;;;5095064;28;20848;-80
2023/10/25 10:17:35;;;;;;;1.90;0.60;;;;;;;;;;5095760;28;20863;-80
2023/10/25 10:20:05;;;;;;;1.90;0.70;;;;;;;;;;5094475;28;21004;-80
2023/10/25 10:22:32;;;;;;;2.00;0.50;;;;;;;;;;5094682;28;21100;-80
2023/10/25 10:25:00;;;;;;;1.77;0.60;;;;;;;;;;5094926;28;20813;-80
2023/10/25 10:27:28;;;;;;;1.83;0.60;;;;;;;;;;5094499;28;20555;-80
2023/10/25 10:29:56;;;;;;;1.73;0.50;;;;;;;;;;5094746;28;20431;-80
2023/10/25 10:32:29;;;;;;;1.80;0.60;;;;;;;;;;5094996;28;20452;-80
2023/10/25 10:34:57;;;;;;;2.40;0.60;;;;;;;;;;5094783;28;20451;-80
2023/10/25 10:37:25;;;;;;;1.70;0.50;;;;;;;;;;5094373;28;20467;-80
2023/10/25 10:40:07;;;;;;;1.97;0.60;;;;;;;;;;5094590;28;20443;-80
2023/10/25 10:42:34;;;;;;;1.90;0.50;;;;;;;;;;5092508;28;20816;-80
2023/10/25 10:45:03;;;;;;;1.80;0.60;;;;;;;;;;5094563;28;20431;-80
2023/10/25 10:47:38;;;;;;;1.80;0.70;;;;;;;;;;5094467;28;20524;-80
2023/10/25 10:50:10;;;;;;;1.80;0.60;;;;;;;;;;5094447;28;20431;-80
2023/10/25 10:52:37;;;;;;;1.70;0.60;;;;;;;;;;5094036;28;20430;-80
2023/10/25 10:55:04;;;;;;;1.70;0.50;;;;;;;;;;5094013;28;20461;-80
2023/10/25 10:57:32;;;;;;;1.60;0.50;;;;;;;;;;5094339;28;20431;-80
2023/10/25 10:59:59;;;;;;;2.17;0.70;;;;;;;;;;5094089;28;20926;-80
2023/10/25 11:02:28;;;;;;;1.90;0.50;;;;;;;;;;5093162;28;20474;-79
2023/10/25 11:04:57;;;;;;;1.80;0.60;;;;;;;;;;5093666;28;20446;-80
2023/10/25 11:07:24;;;;;;;1.83;0.60;;;;;;;;;;5093022;28;20434;-79
2023/10/25 11:09:52;;;;;;;2.23;0.60;;;;;;;;;;5093573;28;20778;-79
2023/10/25 11:12:19;;;;;;;1.90;0.67;;;;;;;;;;5093993;28;20579;-79
2023/10/25 11:14:48;;;;;;;1.80;0.60;;;;;;;;;;5093975;28;20427;-80
2023/10/25 11:17:15;;;;;;;1.90;0.60;;;;;;;;;;5093598;28;20427;-80
2023/10/25 11:19:45;;;;;;;2.57;0.70;;;;;;;;;;5093645;28;20463;-80
2023/10/25 11:22:14;;;;;;;1.83;0.60;;;;;;;;;;5093647;28;20503;-80
2023/10/25 11:24:41;;;;;;;1.87;0.70;;;;;;;;;;5094152;28;20438;-80
2023/10/25 11:27:10;;;;;;;2.00;0.60;;;;;;;;;;5081443;28;20836;-80
2023/10/25 11:29:38;;;;;;;2.00;0.63;;;;;;;;;;5092481;28;20436;-80
2023/10/25 11:32:11;;;;;;;2.10;0.70;;;;;;;;;;5093729;28;20478;-80
2023/10/25 11:34:41;;;;;;;1.90;0.60;;;;;;;;;;5093208;28;20496;-80
2023/10/25 11:37:08;;;;;;;2.10;0.50;;;;;;;;;;5093412;28;20443;-80
2023/10/25 11:39:50;;;;;;;1.70;0.50;;;;;;;;;;5093377;28;20472;-80
2023/10/25 11:42:19;;;;;;;3.07;0.60;;;;;;;;;;5093061;28;20557;-80
2023/10/25 11:44:46;;;;;;;1.90;0.53;;;;;;;;;;5092441;28;20445;-81
2023/10/25 11:47:18;;;;;;;2.93;0.50;;;;;;;;;;5093640;28;20486;-80
2023/10/25 11:49:45;;;;;;;1.90;0.60;;;;;;;;;;5093689;28;20508;-79
2023/10/25 11:52:13;;;;;;;2.63;0.90;;;;;;;;;;5093596;28;20555;-79
2023/10/25 11:54:40;;;;;;;1.80;0.50;;;;;;;;;;5093348;28;20484;-79
2023/10/25 11:57:07;;;;;;;2.27;0.53;;;;;;;;;;5093503;28;20427;-79
2023/10/25 11:59:36;;;;;;;2.07;0.60;;;;;;;;;;5093551;28;20439;-79
2023/10/25 12:02:03;;;;;;;2.37;0.60;;;;;;;;;;5093497;28;20457;-78
2023/10/25 12:04:30;;;;;;;1.90;0.60;;;;;;;;;;5093520;28;20488;-78
2023/10/25 12:06:58;;;;;;;2.60;0.60;;;;;;;;;;5095044;28;20495;-78
2023/10/25 12:09:25;;;;;;;2.03;0.70;;;;;;;;;;5097508;28;20430;-78
2023/10/25 12:11:52;;;;;;;1.90;0.60;;;;;;;;;;5097144;28;20438;-78
2023/10/25 12:14:20;;;;;;;1.70;0.50;;;;;;;;;;5097716;28;20442;-78
2023/10/25 12:16:49;;;;;;;1.80;0.50;;;;;;;;;;5097622;28;20500;-79
2023/10/25 12:19:16;;;;;;;2.20;0.50;;;;;;;;;;5097142;28;20496;-78
2023/10/25 12:21:43;;;;;;;2.10;0.60;;;;;;;;;;5097036;28;20762;-79
2023/10/25 12:24:10;;;;;;;1.70;0.50;;;;;;;;;;5096848;28;20470;-79
2023/10/25 12:26:37;;;;;;;1.80;0.50;;;;;;;;;;5097190;28;20434;-79
2023/10/25 12:29:05;;;;;;;2.30;0.60;;;;;;;;;;5089813;28;20432;-78
2023/10/25 12:31:32;;;;;;;1.63;0.40;;;;;;;;;;5094983;28;20447;-78
2023/10/25 12:34:01;;;;;;;1.67;0.50;;;;;;;;;;5096070;28;20441;-79
2023/10/25 12:36:28;;;;;;;1.80;0.50;;;;;;;;;;5092602;28;20484;-79
2023/10/25 12:38:55;;;;;;;2.33;0.50;;;;;;;;;;5091895;28;20457;-79
2023/10/25 12:41:22;;;;;;;1.77;0.53;;;;;;;;;;5096315;28;20443;-79
2023/10/25 12:43:49;;;;;;;1.80;0.50;;;;;;;;;;5095820;28;20573;-79
2023/10/25 12:46:17;;;;;;;3.60;0.60;;;;;;;;;;5095810;28;20496;-78
2023/10/25 12:48:44;;;;;;;1.70;0.50;;;;;;;;;;5095876;28;20905;-79
2023/10/25 12:51:13;;;;;;;1.70;0.50;;;;;;;;;;5095764;28;20936;-79
2023/10/25 12:53:40;;;;;;;2.00;0.50;;;;;;;;;;5095677;28;20858;-78
2023/10/25 12:56:07;;;;;;;1.73;0.50;;;;;;;;;;5095763;28;20474;-78
2023/10/25 12:58:34;;;;;;;1.80;0.50;;;;;;;;;;5096203;28;20778;-78
2023/10/25 13:01:01;;;;;;;1.80;0.50;;;;;;;;;;5091532;28;20921;-78
2023/10/25 13:03:29;;;;;;;1.80;0.47;;;;;;;;;;5094967;28;20478;-78
2023/10/25 13:05:56;;;;;;;1.70;0.50;;;;;;;;;;5095713;28;20431;-78
2023/10/25 13:08:25;;;;;;;1.70;0.50;;;;;;;;;;5095753;28;20529;-78
2023/10/25 13:10:52;;;;;;;2.00;0.60;;;;;;;;;;5095388;28;20442;-78
2023/10/25 13:13:27;;;;;;;2.20;0.60;;;;;;;;;;5095064;28;20447;-78
2023/10/25 13:15:54;;;;;;;1.70;0.50;;;;;;;;;;5095310;28;20434;-78
2023/10/25 13:18:21;;;;;;;1.80;0.50;;;;;;;;;;5094402;28;20447;-78
2023/10/25 13:20:48;;;;;;;1.90;0.50;;;;;;;;;;5095054;28;20473;-77
2023/10/25 13:23:16;;;;;;;1.90;0.57;;;;;;;;;;5095128;28;20486;-77
2023/10/25 13:25:44;;;;;;;1.90;0.50;;;;;;;;;;5095489;28;21083;-77
2023/10/25 13:28:12;;;;;;;1.90;0.60;;;;;;;;;;5095209;28;20922;-77
2023/10/25 13:30:39;;;;;;;2.30;0.50;;;;;;;;;;5095414;28;20450;-77
2023/10/25 13:33:06;;;;;;;1.80;0.60;;;;;;;;;;5095330;28;20820;-77
2023/10/25 13:35:33;;;;;;;1.80;0.60;;;;;;;;;;5095371;28;20454;-77
2023/10/25 13:38:02;;;;;;;1.70;0.50;;;;;;;;;;5095170;28;20515;-77
2023/10/25 13:40:29;;;;;;;1.70;0.50;;;;;;;;;;5095147;28;20799;-77
2023/10/25 13:42:58;;;;;;;1.80;0.57;;;;;;;;;;5094887;28;20562;-77
2023/10/25 13:45:25;;;;;;;2.37;0.50;;;;;;;;;;5095007;28;20440;-77
2023/10/25 13:47:52;;;;;;;1.80;0.60;;;;;;;;;;5095057;28;20515;-77
2023/10/25 13:50:21;;;;;;;6.50;0.67;;;;;;;;;;5094782;28;20814;-76
2023/10/25 13:52:48;;;;;;;1.83;0.60;;;;;;;;;;5094677;28;20432;-76
2023/10/25 13:55:15;;;;;;;2.73;0.60;;;;;;;;;;5094496;28;20489;-76
2023/10/25 13:57:43;;;;;;;2.00;0.60;;;;;;;;;;5095079;28;20435;-77
2023/10/25 14:00:12;;;;;;;1.70;0.50;;;;;;;;;;5094665;28;20440;-76
2023/10/25 14:02:41;;;;;;;2.00;0.60;;;;;;;;;;5094619;28;20465;-77
2023/10/25 14:05:08;;;;;;;1.77;0.53;;;;;;;;;;5094750;28;20784;-77
2023/10/25 14:07:35;;;;;;;1.80;0.60;;;;;;;;;;5094115;28;20440;-76
2023/10/25 14:10:03;;;;;;;1.80;0.50;;;;;;;;;;5094174;28;20914;-79
2023/10/25 14:12:32;;;;;;;2.37;0.60;;;;;;;;;;5093871;28;20443;-79
2023/10/25 14:14:59;;;;;;;1.70;0.50;;;;;;;;;;5093744;28;20514;-78
2023/10/25 14:17:28;;;;;;;1.80;0.60;;;;;;;;;;5094201;28;20496;-78
2023/10/25 14:19:55;;;;;;;1.80;0.50;;;;;;;;;;5093629;28;20520;-78
2023/10/25 14:22:23;;;;;;;1.90;0.50;;;;;;;;;;5093506;28;20482;-78
2023/10/25 14:24:50;;;;;;;1.93;0.60;;;;;;;;;;5093851;28;21060;-78
2023/10/25 14:27:17;;;;;;;2.93;0.60;;;;;;;;;;5090521;28;20469;-78
2023/10/25 14:29:44;;;;;;;1.70;0.50;;;;;;;;;;5093255;28;20512;-78
2023/10/25 14:32:12;;;;;;;2.73;0.57;;;;;;;;;;5093890;28;20854;-78
2023/10/25 14:34:40;;;;;;;3.00;1.30;;;;;;;;;;5093342;28;20462;-78
2023/10/25 14:37:08;;;;;;;3.47;0.60;;;;;;;;;;5093795;28;20783;-78
2023/10/25 14:39:35;;;;;;;1.70;0.50;;;;;;;;;;5094038;28;20475;-78
2023/10/25 14:42:02;;;;;;;1.70;0.50;;;;;;;;;;5094053;28;21001;-79
2023/10/25 14:44:30;;;;;;;1.97;0.60;;;;;;;;;;5094051;28;20491;-79
2023/10/25 14:46:57;;;;;;;3.60;0.57;;;;;;;;;;5094385;28;20474;-78